• Join FlightAware (Why Join?)
  • Login
  • US Flag 
05:24AM EDT


 

Airport Tracker/Info


-or-


 

Live Flight TrackerFlight Track Log ✈ N830QS ✈ 10-Jan-2014 ✈ KHPN - KLZU

Flight Track Log - Related Links

Times and Time Zones

All times are in EST time to prevent confusion due to time zone crossing. See the N830QS flight status page for this flight to view local times or setup timezone preferences in your user account.

Time Position Orientation Groundspeed Altitude Reporting Facility
EST Latitude Longitude Course Direction KTS MPH feet Rate Location/Type
03:24PM 41.0333 -73.7000 294° West 194 223 2,000  Level New York TRACON
03:25PM 41.0500 -73.7500 294° West 190 219 3,600 1,860 Climbing New York TRACON
03:26PM 41.0500 -73.8167 270° West 209 241 5,800 1,980 Climbing New York TRACON
03:27PM 41.0000 -73.8500 207° Southwest 268 308 7,600 2,100 Climbing New York TRACON
03:28PM 40.9167 -73.8500 180° South 282 325 10,100 2,580 Climbing New York TRACON
03:29PM 40.8833 -73.9167 237° Southwest 251 289 12,900 2,400 Climbing New York TRACON
03:30PM 40.8500 -73.9833 237° Southwest 253 291 14,900 1,020 Climbing New York TRACON
03:31PM 40.8167 -74.0833 246° West 273 314 15,000  Climbing New York TRACON
03:32PM 40.7833 -74.1833 246° West 283 326 15,000 600 Level New York TRACON
03:34PM 40.7275 -74.3775 249° West 272 313 17,000 1,080 Climbing New York Center
03:35PM 40.6847 -74.4792 241° Southwest 278 320 18,600 2,400 Climbing New York Center
03:36PM 40.6486 -74.5675 242° Southwest 283 326 21,800 2,160 Climbing New York Center
03:37PM 40.6081 -74.6581 239° Southwest 283 326 23,000 600 Climbing New York Center
03:38PM 40.5772 -74.7686 250° West 301 346 23,000  Level New York Center
03:39PM 40.5506 -74.8817 253° West 323 372 23,000 1,140 Level New York Center
03:40PM 40.5194 -74.9917 250° West 328 377 25,300 2,460 Climbing New York Center
03:41PM 40.4442 -75.0553 213° Southwest 306 352 28,000 2,460 Climbing New York Center
03:42PM 40.3631 -75.1075 206° Southwest 317 365 30,200 2,460 Climbing New York Center
03:43PM 40.3083 -75.1831 226° Southwest 311 358 33,000 2,340 Climbing New York Center
03:44PM 40.2719 -75.2622 239° Southwest 280 322 34,900 960 Climbing New York Center
03:45PM 40.2328 -75.3547 241° Southwest 280 322 35,000  Climbing New York Center
03:46PM 40.1975 -75.4586 246° West 294 338 35,000 360 Level New York Center
03:47PM 40.1517 -75.5614 240° Southwest 315 362 35,800 2,040 Climbing New York Center
03:48PM 40.1047 -75.6422 233° Southwest 315 362 39,100 2,100 Climbing New York Center
03:49PM 40.0619 -75.7153 233° Southwest 287 330 40,000 420 Climbing New York Center
03:50PM 40.0106 -75.7956 230° Southwest 282 325 40,000  Level New York Center
03:51PM 39.9611 -75.8814 233° Southwest 287 330 40,000  Level New York Center
03:52PM 39.9050 -75.9719 231° Southwest 308 354 40,000  Level New York Center
03:53PM 39.8508 -76.0628 232° Southwest 319 367 40,000  Level New York Center
03:54PM 39.7947 -76.1558 232° Southwest 330 380 40,000  Level New York Center
03:55PM 39.7408 -76.2381 230° Southwest 330 380 40,000  Level New York Center
03:58PM 39.6064 -76.4589 232° Southwest 347 399 40,000  Level Washington Center
03:59PM 39.5472 -76.5497 230° Southwest 341 392 40,000  Level Washington Center
04:00PM 39.4925 -76.6403 232° Southwest 347 399 40,000  Level Washington Center
04:01PM 39.4375 -76.7283 231° Southwest 337 388 40,000  Level Washington Center
04:02PM 39.3825 -76.8158 231° Southwest 337 388 40,000  Level Washington Center
04:03PM 39.3294 -76.9036 232° Southwest 337 388 40,000  Level Washington Center
04:04PM 39.2742 -76.9883 230° Southwest 337 388 40,000  Level Washington Center
04:05PM 39.2189 -77.0758 231° Southwest 331 381 40,000  Level Washington Center
04:06PM 39.1658 -77.1631 232° Southwest 319 367 40,000  Level Washington Center
04:07PM 39.1125 -77.2475 231° Southwest 319 367 40,000  Level Washington Center
04:08PM 39.0572 -77.3344 231° Southwest 319 367 40,000  Level Washington Center
04:09PM 39.0039 -77.4186 231° Southwest 319 367 40,000  Level Washington Center
04:10PM 38.9483 -77.5028 230° Southwest 319 367 40,000  Level Washington Center
04:11PM 38.8864 -77.5972 230° Southwest 319 367 40,000  Level Washington Center
04:12PM 38.8392 -77.6758 232° Southwest 319 367 40,000  Level Washington Center
04:13PM 38.7875 -77.7569 231° Southwest 314 361 40,000  Level Washington Center
04:14PM 38.7233 -77.8533 230° Southwest 332 382 40,000  Level Washington Center
04:15PM 38.6694 -77.9369 230° Southwest 321 369 40,000  Level Washington Center
04:16PM 38.6178 -78.0203 232° Southwest 314 361 40,000  Level Washington Center
04:17PM 38.5661 -78.1036 232° Southwest 314 361 40,000  Level Washington Center
04:18PM 38.5122 -78.1894 231° Southwest 314 361 40,000  Level Washington Center
04:19PM 38.4561 -78.2722 229° Southwest 314 361 40,000  Level Washington Center
04:20PM 38.4042 -78.3550 231° Southwest 314 361 40,000  Level Washington Center
04:21PM 38.3500 -78.4406 231° Southwest 314 361 40,000  Level Washington Center
04:22PM 38.2981 -78.5231 231° Southwest 314 361 40,000  Level Washington Center
04:23PM 38.2500 -78.6139 236° Southwest 309 356 40,000  Level Washington Center
04:24PM 38.1936 -78.6933 228° Southwest 309 356 40,000  Level Washington Center
04:25PM 38.1372 -78.7808 231° Southwest 321 369 40,000  Level Washington Center
04:26PM 38.0872 -78.8578 230° Southwest 321 369 40,000  Level Washington Center
04:27PM 38.0306 -78.9425 230° Southwest 321 369 40,000  Level Washington Center
04:28PM 37.9761 -79.0269 231° Southwest 321 369 40,000  Level Washington Center
04:29PM 37.9192 -79.1139 230° Southwest 321 369 40,000  Level Washington Center
04:30PM 37.8581 -79.2056 230° Southwest 321 369 40,000  Level Washington Center
04:31PM 37.8014 -79.2922 230° Southwest 321 369 40,000  Level Washington Center
04:32PM 37.7464 -79.3764 230° Southwest 321 369 40,000  Level Washington Center
04:33PM 37.6856 -79.4597 227° Southwest 321 369 40,000  Level Washington Center
04:34PM 37.6303 -79.5489 232° Southwest 321 369 40,000  Level Washington Center
04:35PM 37.5756 -79.6325 230° Southwest 321 369 40,000  Level Washington Center
04:36PM 37.5164 -79.7158 228° Southwest 321 369 40,000  Level Washington Center
04:37PM 37.4592 -79.8017 230° Southwest 321 369 40,000  Level Washington Center
04:38PM 37.4014 -79.8950 232° Southwest 336 387 40,000  Level Washington Center
04:40PM 37.2767 -80.0719 228° Southwest 317 365 40,000  Level Atlanta Center
04:41PM 37.2247 -80.1500 230° Southwest 320 368 40,000  Level Atlanta Center
04:42PM 37.1669 -80.2311 228° Southwest 320 368 40,000  Level Atlanta Center
04:43PM 37.1092 -80.3197 231° Southwest 320 368 40,000  Level Atlanta Center
04:44PM 37.0511 -80.4006 228° Southwest 315 362 40,000  Level Atlanta Center
04:45PM 36.9872 -80.4944 230° Southwest 320 368 40,000  Level Atlanta Center
04:46PM 36.9269 -80.5725 226° Southwest 320 368 40,000  Level Atlanta Center
04:47PM 36.8583 -80.6533 223° Southwest 325 374 40,000  Level Atlanta Center
04:48PM 36.7956 -80.7283 224° Southwest 325 374 40,000  Level Atlanta Center
04:49PM 36.7433 -80.7953 226° Southwest 320 368 40,000  Level Atlanta Center
04:50PM 36.6786 -80.8731 224° Southwest 313 360 40,000  Level Atlanta Center
04:51PM 36.6158 -80.9506 225° Southwest 318 366 40,000  Level Atlanta Center
04:52PM 36.5511 -81.0281 224° Southwest 318 366 40,000  Level Atlanta Center
04:53PM 36.4758 -81.1108 221° Southwest 324 373 40,000  Level Atlanta Center
04:54PM 36.3961 -81.1731 212° Southwest 335 386 40,000  Level Atlanta Center
04:55PM 36.3161 -81.2353 212° Southwest 341 392 40,000  Level Atlanta Center
04:56PM 36.2383 -81.2997 214° Southwest 341 392 40,000  Level Atlanta Center
04:57PM 36.1625 -81.3614 213° Southwest 341 392 40,000  Level Atlanta Center
04:58PM 36.0828 -81.4283 214° Southwest 341 392 40,000  Level Atlanta Center
04:59PM 36.0069 -81.4925 214° Southwest 341 392 40,000  Level Atlanta Center
05:00PM 35.9289 -81.5564 214° Southwest 341 392 40,000  Level Atlanta Center
05:01PM 35.8531 -81.6228 215° Southwest 336 387 40,000  Level Atlanta Center
05:02PM 35.7878 -81.7042 225° Southwest 336 387 40,000  Level Atlanta Center
05:03PM 35.7267 -81.7825 226° Southwest 331 381 40,000 -600 Level Atlanta Center
05:04PM 35.6614 -81.8636 225° Southwest 331 381 38,900 -1,260 Descending Atlanta Center
05:05PM 35.6003 -81.9444 227° Southwest 326 375 37,500 -960 Descending Atlanta Center
05:06PM 35.5350 -82.0278 226° Southwest 326 375 37,000 -840 Descending Atlanta Center
05:07PM 35.4714 -82.1083 226° Southwest 326 375 35,900 -1,020 Descending Atlanta Center
05:08PM 35.4061 -82.1939 227° Southwest 331 381 35,000 -1,140 Descending Atlanta Center
05:09PM 35.3406 -82.2769 226° Southwest 331 381 33,700 -1,440 Descending Atlanta Center
05:10PM 35.2728 -82.3622 226° Southwest 336 387 32,200 -1,500 Descending Atlanta Center
05:11PM 35.2053 -82.4500 227° Southwest 341 392 30,700 -1,500 Descending Atlanta Center
05:12PM 35.1353 -82.5353 225° Southwest 351 404 29,300 -1,380 Descending Atlanta Center
05:13PM 35.0694 -82.6178 226° Southwest 351 404 28,000 -1,320 Descending Atlanta Center
05:14PM 35.0078 -82.6947 226° Southwest 351 404 26,700 -1,620 Descending Atlanta Center
05:15PM 34.9397 -82.7794 226° Southwest 359 413 24,800 -1,980 Descending Atlanta Center
05:16PM 34.8719 -82.8667 227° Southwest 353 406 22,800 -1,980 Descending Atlanta Center
05:17PM 34.7953 -82.9411 219° Southwest 353 406 20,900 -2,040 Descending Atlanta Center
05:18PM 34.7356 -83.0253 229° Southwest 338 389 18,800 -1,980 Descending Atlanta Center
05:19PM 34.6714 -83.1067 226° Southwest 327 376 17,000 -1,920 Descending Atlanta Center
05:20PM 34.6072 -83.1833 225° Southwest 328 377 15,000 -2,040 Descending Atlanta Center
05:21PM 34.5472 -83.2619 227° Southwest 323 372 13,000 -2,100 Descending Atlanta Center
05:22PM 34.4872 -83.3383 226° Southwest 313 360 10,900 -1,980 Descending Atlanta Center
05:23PM 34.4417 -83.3964 226° Southwest 285 328 9,100 -1,920 Descending Atlanta Center
05:24PM 34.3856 -83.4597 223° Southwest 265 305 7,100 -1,080 Descending Atlanta Center
05:25PM 34.3336 -83.5106 219° Southwest 251 289 7,000 -600 Descending Atlanta Center
05:26PM 34.2817 -83.5586 217° Southwest 245 282 6,000 -1,140 Descending Atlanta Center
05:27PM 34.2256 -83.6017 212° Southwest 245 282 4,800 -1,020 Descending Atlanta Center
05:28PM 34.1756 -83.6394 212° Southwest 231 266 4,000 -420 Descending Atlanta Center
05:29PM 34.1319 -83.6750 214° Southwest 207 238 4,000  Level Atlanta Center
05:30PM 34.0881 -83.7103 214° Southwest 191 220 4,000 -60 Level Atlanta Center
05:32PM 34.0500 -83.8000 243° Southwest 161 185 3,900 -360 Descending Atlanta TRACON
05:33PM 34.0333 -83.8333 239° Southwest 141 162 3,100 -720 Descending Atlanta TRACON
05:34PM 34.0167 -83.8667 239° Southwest 107 123 2,500 -600 Descending Atlanta TRACON
05:35PM 34.0000 -83.9167 248° West 131 151 1,900 -600 Descending Atlanta TRACON
05:36PM 33.9667 -83.9500 220° Southwest  Level FlightAware Approximate